Time;durP1;ratioP1;P1;durP2;ratioP2;P2;SDS_P1;SDS_P2;PMS_P1;PMS_P2;Temp;Humidity;BMP_temperature;BMP_pressure;BME280_temperature;BME280_humidity;BME280_pressure;Samples;Min_cycle;Max_cycle;Signal;HPM_P1;HPM_P2
2022/06/16 00:01:09;;;;;;;11.07;4.15;;;23.70;99.90;;;;;;5131202;28;20023;-70
2022/06/16 00:03:35;;;;;;;9.50;4.22;;;23.60;99.90;;;;;;5132461;27;20036;-70
2022/06/16 00:06:01;;;;;;;8.07;4.10;;;23.60;99.90;;;;;;5132513;28;20030;-69
2022/06/16 00:08:27;;;;;;;8.35;4.13;;;23.50;99.90;;;;;;5132527;28;20494;-69
2022/06/16 00:13:39;;;;;;;7.22;4.25;;;23.40;99.90;;;;;;5132889;28;20083;-68
2022/06/16 00:16:06;;;;;;;9.48;3.67;;;23.40;99.90;;;;;;5131020;28;20034;-69
2022/06/16 00:18:33;;;;;;;7.25;3.42;;;23.20;99.90;;;;;;5132329;27;20024;-69
2022/06/16 00:20:59;;;;;;;5.13;3.03;;;23.20;99.90;;;;;;5132650;27;20379;-69
2022/06/16 00:23:25;;;;;;;5.72;2.95;;;23.10;99.90;;;;;;5132969;27;20027;-69
2022/06/16 00:25:51;;;;;;;9.15;3.05;;;23.00;99.90;;;;;;5132374;27;20019;-69
2022/06/16 00:28:17;;;;;;;7.57;2.72;;;23.00;99.90;;;;;;5130880;28;20368;-69
2022/06/16 00:30:43;;;;;;;11.02;3.30;;;22.90;99.90;;;;;;5132250;28;20035;-69
2022/06/16 00:33:10;;;;;;;8.18;2.80;;;22.90;99.90;;;;;;5130850;28;20402;-69
2022/06/16 00:35:36;;;;;;;5.20;3.00;;;23.00;99.90;;;;;;5132301;27;20027;-69
2022/06/16 00:38:02;;;;;;;9.27;3.70;;;23.00;99.90;;;;;;5132204;27;20031;-69
2022/06/16 00:40:29;;;;;;;10.10;3.88;;;23.20;99.90;;;;;;5132593;28;20076;-69
2022/06/16 00:42:55;;;;;;;6.22;3.55;;;23.20;99.90;;;;;;5133358;27;20068;-70
2022/06/16 00:45:42;;;;;;;7.57;3.80;;;23.20;99.90;;;;;;5136544;27;20034;-69
2022/06/16 00:48:15;;;;;;;6.80;3.40;;;23.20;99.90;;;;;;5136674;27;20031;-68
2022/06/16 00:50:44;;;;;;;7.03;3.22;;;23.30;99.90;;;;;;5136342;27;20222;-69
2022/06/16 00:53:10;;;;;;;5.03;2.60;;;23.30;99.90;;;;;;5135837;27;20082;-68
2022/06/16 00:55:37;;;;;;;8.73;2.80;;;23.30;99.90;;;;;;5135934;27;20027;-68
2022/06/16 00:58:03;;;;;;;4.72;2.20;;;23.30;99.90;;;;;;5134256;27;20027;-68
2022/06/16 01:00:47;;;;;;;5.43;2.60;;;23.30;99.90;;;;;;5136000;27;20043;-68
2022/06/16 01:04:51;;;;;;;11.40;2.60;;;23.40;99.90;;;;;;5135700;27;20053;-68
2022/06/16 01:06:15;;;;;;;4.78;2.72;;;23.40;99.90;;;;;;5135554;27;20027;-68
2022/06/16 01:08:41;;;;;;;6.15;2.33;;;23.40;99.90;;;;;;5135881;27;20031;-68
2022/06/16 01:13:41;;;;;;;7.78;2.55;;;23.30;99.90;;;;;;5135504;27;20030;-68
2022/06/16 01:14:10;;;;;;;4.72;2.30;;;23.40;99.90;;;;;;5135506;27;20035;-68
2022/06/16 01:16:45;;;;;;;7.47;2.20;;;23.40;99.60;;;;;;5136011;27;20102;-68
2022/06/16 01:19:26;;;;;;;5.35;2.40;;;23.40;99.30;;;;;;5135728;27;20408;-68
2022/06/16 01:22:06;;;;;;;4.82;1.90;;;23.40;98.50;;;;;;5136013;27;20019;-68
2022/06/16 01:24:50;;;;;;;6.03;2.33;;;23.40;98.40;;;;;;5133947;27;20072;-69
2022/06/16 01:27:35;;;;;;;4.60;2.30;;;23.40;98.60;;;;;;5135840;27;20107;-68
2022/06/16 01:30:04;;;;;;;7.35;2.20;;;23.30;98.80;;;;;;5135676;27;20103;-68
2022/06/16 01:32:39;;;;;;;5.53;2.10;;;23.30;98.90;;;;;;5135243;27;20114;-68
2022/06/16 01:35:28;;;;;;;5.20;2.30;;;23.20;99.50;;;;;;5135753;27;20019;-69
2022/06/16 01:38:08;;;;;;;7.75;2.40;;;23.10;99.80;;;;;;5135510;27;20019;-69
2022/06/16 01:41:06;;;;;;;5.05;2.28;;;23.00;99.90;;;;;;5135141;27;20035;-70
2022/06/16 01:43:38;;;;;;;6.22;2.25;;;23.00;99.90;;;;;;5062127;27;20045;-69
2022/06/16 01:46:21;;;;;;;3.33;1.80;;;23.00;99.50;;;;;;5135532;27;20034;-69
2022/06/16 01:48:52;;;;;;;5.57;2.00;;;23.00;99.20;;;;;;5135288;27;20380;-68
2022/06/16 01:51:42;;;;;;;6.75;2.10;;;23.00;98.90;;;;;;5135105;27;20094;-68
2022/06/16 01:54:24;;;;;;;8.45;2.30;;;23.00;98.20;;;;;;5134729;27;20076;-68
2022/06/16 01:57:25;;;;;;;5.45;1.70;;;23.00;98.10;;;;;;5135027;27;20034;-68
2022/06/16 02:00:19;;;;;;;3.03;1.75;;;23.10;97.80;;;;;;5051391;28;20076;-68
2022/06/16 02:02:49;;;;;;;5.13;1.90;;;23.00;97.50;;;;;;5051024;28;20073;-68
2022/06/16 02:05:23;;;;;;;4.28;1.75;;;23.00;97.40;;;;;;5051696;28;20036;-68
2022/06/16 02:08:03;;;;;;;5.13;2.00;;;23.00;96.90;;;;;;5051493;28;20469;-68
2022/06/16 02:10:34;;;;;;;3.35;1.88;;;22.90;96.70;;;;;;5051465;28;20032;-68
2022/06/16 02:13:04;;;;;;;3.50;1.80;;;22.90;96.30;;;;;;5051468;28;20571;-68
2022/06/16 02:15:42;;;;;;;3.72;1.67;;;23.00;95.70;;;;;;5034367;28;20017;-68
2022/06/16 02:18:11;;;;;;;4.45;1.90;;;23.00;95.00;;;;;;5051113;28;20063;-68
2022/06/16 02:20:58;;;;;;;3.05;1.80;;;23.10;94.60;;;;;;5051037;28;20032;-69
2022/06/16 02:23:24;;;;;;;3.30;1.50;;;23.10;94.40;;;;;;5051192;28;20044;-70
2022/06/16 02:25:55;;;;;;;4.63;1.80;;;23.10;94.30;;;;;;5050833;28;20462;-68
2022/06/16 02:28:22;;;;;;;4.80;1.60;;;23.20;94.10;;;;;;5051038;28;20115;-69
2022/06/16 02:30:59;;;;;;;4.80;1.60;;;23.20;93.90;;;;;;5051061;28;20041;-68
2022/06/16 02:33:57;;;;;;;2.97;1.85;;;23.20;93.60;;;;;;5033915;28;20208;-69
2022/06/16 02:36:53;;;;;;;3.28;1.48;;;23.30;93.20;;;;;;5092629;27;20043;-69
2022/06/16 02:39:35;;;;;;;4.55;1.50;;;23.30;92.90;;;;;;5134323;27;20118;-68
2022/06/16 02:42:19;;;;;;;4.72;1.60;;;23.30;92.50;;;;;;5133943;27;20049;-69
2022/06/16 02:44:59;;;;;;;4.75;1.60;;;23.30;92.60;;;;;;5134055;27;20023;-69
2022/06/16 02:47:54;;;;;;;3.72;1.75;;;23.30;92.60;;;;;;5134065;27;20093;-68
2022/06/16 02:50:48;;;;;;;6.57;2.10;;;23.30;93.20;;;;;;5133839;27;20031;-70
2022/06/16 02:53:46;;;;;;;2.92;1.52;;;23.30;93.10;;;;;;5132389;27;20103;-69
2022/06/16 02:56:26;;;;;;;3.40;1.75;;;23.30;92.90;;;;;;5132471;27;20042;-68
2022/06/16 02:58:56;;;;;;;2.60;1.70;;;23.30;93.10;;;;;;5134194;27;20034;-68
2022/06/16 03:01:23;;;;;;;3.25;1.70;;;23.20;93.00;;;;;;5132477;27;20038;-68
2022/06/16 03:04:10;;;;;;;3.15;1.60;;;23.30;92.40;;;;;;5133044;27;20500;-68
2022/06/16 03:06:36;;;;;;;3.33;1.50;;;23.30;91.70;;;;;;5132411;27;20420;-68
2022/06/16 03:09:04;;;;;;;3.60;1.65;;;23.30;91.50;;;;;;5133080;27;20027;-69
2022/06/16 03:11:31;;;;;;;5.72;2.33;;;23.30;92.60;;;;;;5133563;27;20140;-68
2022/06/16 03:13:59;;;;;;;6.30;1.95;;;23.30;96.20;;;;;;5133280;27;20099;-68
2022/06/16 03:16:25;;;;;;;5.13;2.05;;;23.20;97.40;;;;;;5133003;27;20058;-69
2022/06/16 03:18:51;;;;;;;4.22;1.98;;;23.20;98.30;;;;;;5131803;27;20483;-68
2022/06/16 03:21:17;;;;;;;5.35;1.90;;;23.10;97.80;;;;;;5132270;27;20050;-68
2022/06/16 03:23:44;;;;;;;3.28;1.80;;;23.00;96.80;;;;;;5134060;27;20023;-68
2022/06/16 03:26:10;;;;;;;3.50;1.77;;;23.00;94.80;;;;;;5133478;27;20460;-68
2022/06/16 03:28:36;;;;;;;3.80;1.95;;;22.90;95.30;;;;;;5133859;27;20023;-68
2022/06/16 03:31:03;;;;;;;5.00;1.70;;;22.90;96.30;;;;;;5133419;27;20189;-69
2022/06/16 03:33:29;;;;;;;4.55;2.28;;;22.90;95.10;;;;;;5133466;27;20031;-68
2022/06/16 03:35:56;;;;;;;4.43;2.08;;;22.90;95.20;;;;;;5133531;27;20094;-68
2022/06/16 03:38:42;;;;;;;5.60;2.50;;;22.90;96.10;;;;;;5133057;27;20103;-69
2022/06/16 03:41:09;;;;;;;5.13;2.53;;;23.00;96.50;;;;;;5133592;27;20490;-69
2022/06/16 03:43:35;;;;;;;5.60;2.33;;;23.00;97.10;;;;;;5133145;27;20054;-69
2022/06/16 03:46:01;;;;;;;5.18;2.70;;;22.90;97.50;;;;;;5133448;27;20031;-69
2022/06/16 03:48:27;;;;;;;4.22;2.40;;;22.90;98.50;;;;;;5133472;27;20047;-69
2022/06/16 03:50:53;;;;;;;4.25;2.15;;;22.90;98.80;;;;;;5131592;27;20352;-69
2022/06/16 03:53:19;;;;;;;5.68;2.45;;;22.90;98.90;;;;;;5133472;27;20102;-69
2022/06/16 03:55:45;;;;;;;8.77;2.58;;;22.90;97.90;;;;;;5133065;27;20022;-68
2022/06/16 03:58:13;;;;;;;8.23;2.72;;;22.90;96.90;;;;;;5133138;27;20073;-68
2022/06/16 04:00:40;;;;;;;5.97;2.47;;;22.90;96.50;;;;;;5133476;27;20416;-68
2022/06/16 04:05:53;;;;;;;5.55;2.85;;;23.10;95.20;;;;;;5133575;28;20094;-69
2022/06/16 04:08:20;;;;;;;5.95;2.47;;;23.20;96.10;;;;;;5131443;28;20023;-69
2022/06/16 04:10:48;;;;;;;9.43;2.67;;;23.30;95.20;;;;;;5131287;28;20096;-69
2022/06/16 04:13:15;;;;;;;6.18;2.33;;;23.40;94.20;;;;;;5132843;27;20042;-68
2022/06/16 04:15:42;;;;;;;4.43;1.55;;;23.50;94.00;;;;;;5131405;28;20023;-69
2022/06/16 04:18:08;;;;;;;;;;;23.50;91.40;;;;;;5137313;27;20102;-68
2022/06/16 04:20:35;;;;;;;5.07;1.85;;;23.60;90.90;;;;;;5136787;27;20015;-69
2022/06/16 04:23:01;;;;;;;4.05;1.80;;;23.60;91.20;;;;;;5138120;27;20034;-68
2022/06/16 04:25:30;;;;;;;10.40;1.83;;;23.60;91.10;;;;;;5138249;27;20026;-69
2022/06/16 04:28:02;;;;;;;4.60;1.80;;;23.70;90.80;;;;;;5137810;27;20536;-69
2022/06/16 04:30:28;;;;;;;5.45;2.00;;;23.80;90.30;;;;;;5138026;27;20019;-69
2022/06/16 04:32:57;;;;;;;7.57;2.00;;;23.70;90.40;;;;;;5137652;27;20158;-69
2022/06/16 04:35:23;;;;;;;7.70;2.33;;;23.70;90.50;;;;;;5136180;27;20035;-69
2022/06/16 04:37:49;;;;;;;5.57;1.75;;;23.70;90.50;;;;;;5137988;27;20135;-68
2022/06/16 04:40:16;;;;;;;4.10;1.77;;;23.60;90.50;;;;;;5137846;27;20042;-68
2022/06/16 04:42:42;;;;;;;;;;;23.50;90.90;;;;;;5138798;27;20027;-69
2022/06/16 04:45:10;;;;;;;4.43;2.05;;;23.50;91.10;;;;;;5138102;27;19907;-69
2022/06/16 04:47:38;;;;;;;8.20;2.03;;;23.70;91.40;;;;;;5137960;27;20051;-69
2022/06/16 04:50:05;;;;;;;6.50;2.10;;;23.80;91.00;;;;;;5138001;27;20135;-69
2022/06/16 04:52:31;;;;;;;9.15;2.38;;;24.00;91.20;;;;;;5137585;27;20034;-71
2022/06/16 04:54:57;;;;;;;4.32;1.83;;;24.20;91.10;;;;;;5138065;27;20015;-69
2022/06/16 04:57:24;;;;;;;8.18;2.10;;;24.10;90.60;;;;;;5137837;27;20035;-69
2022/06/16 04:59:50;;;;;;;7.25;1.80;;;24.20;91.20;;;;;;5137358;27;20034;-69
2022/06/16 05:02:16;;;;;;;6.13;1.63;;;25.00;90.50;;;;;;5137925;27;20034;-69
2022/06/16 05:04:44;;;;;;;6.45;1.88;;;26.50;86.20;;;;;;5137335;27;20047;-69
2022/06/16 05:07:11;;;;;;;6.82;1.60;;;27.90;82.40;;;;;;5137324;27;20022;-69
2022/06/16 05:09:38;;;;;;;7.63;1.80;;;29.20;78.20;;;;;;5137913;27;20383;-69
2022/06/16 05:12:04;;;;;;;3.33;1.33;;;30.40;74.70;;;;;;5137261;27;20022;-70
2022/06/16 05:14:30;;;;;;;3.42;1.50;;;32.00;71.10;;;;;;5135541;27;20027;-69
2022/06/16 05:16:56;;;;;;;8.13;1.60;;;33.60;66.40;;;;;;5137151;27;20482;-69
2022/06/16 05:19:23;;;;;;;;;;;34.30;62.60;;;;;;5137368;27;20067;-69
2022/06/16 05:21:49;;;;;;;4.15;1.35;;;35.40;59.80;;;;;;5137488;27;19907;-69
2022/06/16 05:24:15;;;;;;;5.80;1.25;;;36.10;57.50;;;;;;5137283;27;20023;-69
2022/06/16 05:26:41;;;;;;;4.90;1.15;;;36.60;55.20;;;;;;5137265;27;20038;-69
2022/06/16 05:29:07;;;;;;;2.60;1.20;;;36.90;53.30;;;;;;5135766;27;20076;-69
2022/06/16 05:31:36;;;;;;;3.65;1.27;;;36.40;53.10;;;;;;5137252;27;20094;-69
2022/06/16 05:34:02;;;;;;;5.63;1.30;;;37.20;52.70;;;;;;5136647;27;20118;-70
2022/06/16 05:36:28;;;;;;;5.50;1.30;;;38.80;50.80;;;;;;5136801;27;20375;-70
2022/06/16 05:38:54;;;;;;;5.32;1.15;;;40.00;49.10;;;;;;5136415;27;20035;-70
2022/06/16 05:41:21;;;;;;;6.55;1.20;;;40.70;46.90;;;;;;5136375;27;20121;-70
2022/06/16 05:43:47;;;;;;;3.72;0.90;;;41.60;45.40;;;;;;5136259;27;20027;-69
2022/06/16 05:46:19;;;;;;;5.07;1.10;;;40.80;44.10;;;;;;5136855;27;20034;-69
2022/06/16 05:48:46;;;;;;;5.40;1.23;;;41.00;44.40;;;;;;5136453;27;20103;-69
2022/06/16 05:51:15;;;;;;;3.85;1.17;;;41.60;43.40;;;;;;5136050;27;20337;-69
2022/06/16 05:53:42;;;;;;;4.28;1.30;;;42.10;43.50;;;;;;5135911;27;20031;-69
2022/06/16 05:56:08;;;;;;;6.38;1.30;;;42.50;43.60;;;;;;5135575;27;20098;-69
2022/06/16 05:58:35;;;;;;;4.53;1.27;;;43.40;43.00;;;;;;5134058;27;20030;-71
2022/06/16 06:01:02;;;;;;;4.35;1.20;;;43.60;41.60;;;;;;5135644;27;20023;-68
2022/06/16 06:03:28;;;;;;;4.45;1.40;;;43.70;41.70;;;;;;5135253;27;20051;-68
2022/06/16 06:05:54;;;;;;;8.15;1.50;;;44.50;41.20;;;;;;5135451;27;20027;-69
2022/06/16 06:16:40;;;;;;;2.55;1.08;;;43.90;40.60;;;;;;5135652;27;20030;-69
2022/06/16 06:19:24;;;;;;;3.65;1.20;;;44.90;39.90;;;;;;5136254;27;20064;-69
2022/06/16 06:22:05;;;;;;;43.15;4.45;;;45.40;38.90;;;;;;5136156;27;20024;-69
2022/06/16 06:24:36;;;;;;;5.03;1.60;;;45.40;40.20;;;;;;5134382;27;20023;-70
2022/06/16 06:27:41;;;;;;;7.90;1.50;;;45.80;41.70;;;;;;5135973;27;20027;-69
2022/06/16 06:30:10;;;;;;;6.57;1.27;;;46.00;41.20;;;;;;5134390;27;20062;-71
2022/06/16 06:32:37;;;;;;;6.97;1.50;;;45.70;41.10;;;;;;5133988;27;20024;-69
2022/06/16 06:35:04;;;;;;;8.10;1.40;;;46.00;41.20;;;;;;5135365;27;20019;-70
2022/06/16 06:37:30;;;;;;;54.30;5.30;;;45.90;41.00;;;;;;5135125;27;20071;-69
2022/06/16 06:39:56;;;;;;;9.27;1.95;;;46.00;39.90;;;;;;5135174;27;20527;-69
2022/06/16 06:42:23;;;;;;;9.40;2.28;;;46.50;39.80;;;;;;5133926;27;20016;-69
2022/06/16 06:44:50;;;;;;;6.10;1.70;;;45.70;39.50;;;;;;5135293;27;20428;-71
2022/06/16 06:47:23;;;;;;;8.75;1.80;;;46.30;39.50;;;;;;5135239;27;20055;-70
2022/06/16 06:49:49;;;;;;;9.30;1.48;;;46.90;39.10;;;;;;5135357;27;20023;-69
2022/06/16 06:52:16;;;;;;;12.73;1.40;;;47.40;38.50;;;;;;5133619;27;20050;-69
2022/06/16 06:54:45;;;;;;;21.80;2.30;;;45.20;36.80;;;;;;5135051;27;20023;-69
2022/06/16 06:57:14;;;;;;;5.68;1.30;;;44.10;37.90;;;;;;5135211;27;20034;-69
2022/06/16 06:59:40;;;;;;;11.10;1.23;;;43.00;39.10;;;;;;5135090;27;20168;-69
2022/06/16 07:02:10;;;;;;;4.72;1.10;;;43.40;38.80;;;;;;5134423;27;20023;-69
2022/06/16 07:04:36;;;;;;;11.10;1.58;;;44.50;38.00;;;;;;5134340;27;20047;-69
2022/06/16 07:07:02;;;;;;;6.35;1.20;;;45.40;37.20;;;;;;5135080;27;20473;-69
2022/06/16 07:09:28;;;;;;;12.85;2.13;;;46.20;37.00;;;;;;5134466;27;20034;-70
2022/06/16 07:11:54;;;;;;;11.43;2.08;;;46.10;39.20;;;;;;5135075;27;20077;-70
2022/06/16 07:14:20;;;;;;;12.23;3.00;;;46.00;40.30;;;;;;5135071;27;20035;-69
2022/06/16 07:16:49;;;;;;;14.82;3.03;;;46.10;40.80;;;;;;5134883;27;20026;-70
2022/06/16 07:19:16;;;;;;;14.63;3.50;;;45.80;41.30;;;;;;5134447;27;20088;-68
2022/06/16 07:21:42;;;;;;;13.27;3.78;;;44.90;41.60;;;;;;5134623;27;20092;-70
2022/06/16 07:24:08;;;;;;;27.20;4.10;;;44.00;42.30;;;;;;5134735;27;20027;-69
2022/06/16 07:26:34;;;;;;;15.05;3.60;;;42.90;43.60;;;;;;5134710;27;20544;-69
2022/06/16 07:29:01;;;;;;;16.75;3.97;;;41.90;44.50;;;;;;5134525;27;20030;-69
2022/06/16 07:31:29;;;;;;;12.88;4.38;;;39.90;46.20;;;;;;5134053;27;20035;-69
2022/06/16 07:33:56;;;;;;;9.13;4.00;;;39.00;47.80;;;;;;5134073;27;20080;-69
2022/06/16 07:36:22;;;;;;;12.45;3.20;;;38.40;49.20;;;;;;5133863;27;20049;-69
2022/06/16 07:38:49;;;;;;;11.02;3.03;;;38.20;50.00;;;;;;5134178;27;20035;-70
2022/06/16 07:41:31;;;;;;;10.52;3.10;;;37.80;49.80;;;;;;5133864;27;20031;-69
2022/06/16 07:44:00;;;;;;;9.57;2.67;;;37.10;51.30;;;;;;5134328;27;20038;-69
2022/06/16 07:46:26;;;;;;;9.20;2.50;;;36.40;52.10;;;;;;5133709;27;20024;-69
2022/06/16 07:48:53;;;;;;;11.68;2.47;;;36.70;52.70;;;;;;5134188;27;20380;-70
2022/06/16 07:51:19;;;;;;;9.52;2.10;;;36.60;52.70;;;;;;5133129;27;20490;-70
2022/06/16 07:53:47;;;;;;;9.43;2.25;;;36.60;52.60;;;;;;5134006;27;20034;-69
2022/06/16 07:56:14;;;;;;;9.68;2.55;;;36.80;52.40;;;;;;5131924;27;20110;-69
2022/06/16 07:58:41;;;;;;;12.80;2.60;;;36.80;52.70;;;;;;5133216;27;20058;-71
2022/06/16 08:01:07;;;;;;;7.93;2.10;;;36.80;53.30;;;;;;5132314;27;20024;-69
2022/06/16 08:03:34;;;;;;;5.95;2.13;;;37.00;53.10;;;;;;5133559;27;20046;-68
2022/06/16 08:06:05;;;;;;;8.70;2.58;;;37.00;53.00;;;;;;5133766;27;20111;-68
2022/06/16 08:08:31;;;;;;;7.22;2.30;;;37.10;53.50;;;;;;5133885;27;20049;-69
2022/06/16 08:10:57;;;;;;;7.40;1.95;;;36.50;53.90;;;;;;5133364;27;20084;-69
2022/06/16 08:13:26;;;;;;;11.40;2.22;;;36.40;54.40;;;;;;5133868;28;20027;-69
2022/06/16 08:15:53;;;;;;;7.68;2.13;;;36.20;55.60;;;;;;5133161;27;20402;-71
2022/06/16 08:18:22;;;;;;;7.93;1.92;;;36.20;55.70;;;;;;5133642;27;20045;-68
2022/06/16 08:20:49;;;;;;;8.18;2.20;;;36.00;55.10;;;;;;5133980;27;20031;-69
2022/06/16 08:23:16;;;;;;;11.40;1.90;;;35.60;56.10;;;;;;5133507;27;20024;-70
2022/06/16 08:25:44;;;;;;;5.20;1.90;;;35.10;56.90;;;;;;5133466;27;20484;-70
2022/06/16 08:28:13;;;;;;;6.10;2.17;;;34.70;57.50;;;;;;5133395;27;20019;-69
2022/06/16 08:30:44;;;;;;;6.78;1.90;;;34.40;57.20;;;;;;5133421;27;20027;-70
2022/06/16 08:33:13;;;;;;;10.68;2.70;;;34.20;57.40;;;;;;5133320;27;20027;-68
2022/06/16 08:35:44;;;;;;;10.20;2.38;;;34.60;57.20;;;;;;5133672;27;20046;-70
2022/06/16 08:38:11;;;;;;;4.43;1.88;;;35.00;57.20;;;;;;5133658;27;20091;-69
2022/06/16 08:40:47;;;;;;;4.75;1.77;;;35.10;55.90;;;;;;5133463;27;20422;-68
2022/06/16 08:43:27;;;;;;;5.25;1.92;;;35.00;55.80;;;;;;5133243;27;20024;-69
2022/06/16 08:46:00;;;;;;;4.43;2.00;;;34.60;56.70;;;;;;5134030;27;20035;-69
2022/06/16 08:48:48;;;;;;;4.75;1.80;;;34.30;57.40;;;;;;5133214;27;20042;-69
2022/06/16 08:51:25;;;;;;;4.93;2.05;;;34.20;56.80;;;;;;5133397;27;20523;-70
2022/06/16 08:54:32;;;;;;;10.43;2.00;;;34.50;56.90;;;;;;5133237;28;20110;-69
2022/06/16 08:57:46;;;;;;;6.82;1.73;;;34.80;55.40;;;;;;5131498;28;20106;-69
2022/06/16 09:00:18;;;;;;;4.70;1.90;;;34.70;54.50;;;;;;5032926;28;20128;-69
2022/06/16 09:02:56;;;;;;;6.25;2.08;;;34.20;55.20;;;;;;5032499;28;20569;-69
2022/06/16 09:05:22;;;;;;;6.47;1.95;;;34.20;55.70;;;;;;5052986;28;20037;-70
2022/06/16 09:07:53;;;;;;;;;;;34.50;55.40;;;;;;5053980;28;20029;-69
2022/06/16 09:10:49;;;;;;;4.55;1.80;;;34.80;54.20;;;;;;5052956;28;19908;-70
2022/06/16 09:13:20;;;;;;;3.78;1.75;;;34.90;53.90;;;;;;5053163;28;20063;-69
2022/06/16 09:16:10;;;;;;;5.65;2.05;;;34.70;53.50;;;;;;5053583;28;20457;-70
2022/06/16 09:18:56;;;;;;;4.72;1.80;;;34.70;52.80;;;;;;5052957;28;20033;-69
2022/06/16 09:22:00;;;;;;;5.75;1.77;;;34.70;52.60;;;;;;5053165;28;20044;-68
2022/06/16 09:24:56;;;;;;;8.32;2.10;;;34.60;53.70;;;;;;5052851;28;20025;-68
2022/06/16 09:27:32;;;;;;;4.07;2.90;;;34.50;56.20;;;;;;5035814;28;20049;-68
2022/06/16 09:30:17;;;;;;;4.97;2.00;;;34.10;57.50;;;;;;5052992;28;20075;-69
2022/06/16 09:32:57;;;;;;;6.38;2.47;;;33.80;58.90;;;;;;5035745;28;20112;-69
2022/06/16 09:35:42;;;;;;;8.80;2.67;;;33.50;59.60;;;;;;5135841;27;20471;-69
2022/06/16 09:38:17;;;;;;;6.55;2.30;;;33.20;63.50;;;;;;5135482;27;20038;-68
2022/06/16 09:40:52;;;;;;;5.00;2.30;;;32.80;66.70;;;;;;5135627;27;20365;-70
2022/06/16 09:43:35;;;;;;;6.90;2.55;;;32.50;68.20;;;;;;5135261;27;20019;-68
2022/06/16 09:46:14;;;;;;;8.38;2.45;;;32.30;68.40;;;;;;5135225;27;20076;-68
2022/06/16 09:48:52;;;;;;;6.55;2.85;;;31.90;70.00;;;;;;5133981;27;20019;-69
2022/06/16 09:51:30;;;;;;;4.45;2.50;;;32.10;69.70;;;;;;5135336;27;20121;-69
2022/06/16 09:54:17;;;;;;;5.43;2.63;;;32.10;70.60;;;;;;5135284;27;20051;-69
2022/06/16 09:56:55;;;;;;;4.57;2.20;;;32.00;63.30;;;;;;5135339;27;20047;-69
2022/06/16 09:59:44;;;;;;;6.85;2.78;;;31.70;61.80;;;;;;5135090;27;20031;-69
2022/06/16 10:02:26;;;;;;;7.20;2.72;;;31.70;64.80;;;;;;5135805;27;20056;-69
2022/06/16 10:04:56;;;;;;;5.57;2.97;;;32.00;63.40;;;;;;5135138;27;20047;-69
2022/06/16 10:07:28;;;;;;;7.95;3.97;;;32.30;64.10;;;;;;5135533;27;20031;-68
2022/06/16 10:10:15;;;;;;;7.43;2.70;;;32.60;63.40;;;;;;5135676;27;20047;-68
2022/06/16 10:12:54;;;;;;;5.63;2.80;;;32.30;61.10;;;;;;5135399;27;20031;-69
2022/06/16 10:15:35;;;;;;;4.97;2.70;;;32.40;62.20;;;;;;5134727;27;20376;-69
2022/06/16 10:18:03;;;;;;;4.38;2.53;;;32.40;63.50;;;;;;5135948;27;20450;-68
2022/06/16 10:20:31;;;;;;;9.07;2.35;;;32.50;64.10;;;;;;5135284;27;20043;-71
2022/06/16 10:23:16;;;;;;;5.22;2.30;;;32.80;64.40;;;;;;5136008;27;20459;-70
2022/06/16 10:25:48;;;;;;;5.57;2.58;;;32.90;65.00;;;;;;5135324;27;20023;-69
2022/06/16 10:28:31;;;;;;;7.75;2.35;;;33.30;65.70;;;;;;5135873;27;20140;-68
2022/06/16 10:30:59;;;;;;;6.00;2.22;;;33.40;64.60;;;;;;5135223;27;20122;-70
2022/06/16 10:33:33;;;;;;;5.15;2.25;;;33.50;63.30;;;;;;5135727;27;20019;-68
2022/06/16 10:36:04;;;;;;;6.05;1.92;;;33.60;61.10;;;;;;5135112;27;20042;-69
2022/06/16 10:38:34;;;;;;;6.38;2.88;;;33.40;60.50;;;;;;5135038;27;20035;-69
2022/06/16 10:41:07;;;;;;;5.63;2.50;;;33.50;62.80;;;;;;5135137;27;20551;-69
2022/06/16 10:43:39;;;;;;;7.00;2.55;;;33.50;63.20;;;;;;5135008;27;20019;-69
2022/06/16 10:46:20;;;;;;;5.82;2.15;;;33.50;62.00;;;;;;5134879;27;20467;-69
2022/06/16 10:48:53;;;;;;;5.72;2.22;;;33.30;62.50;;;;;;5135523;27;20023;-69
2022/06/16 10:51:25;;;;;;;5.20;1.85;;;33.30;63.10;;;;;;5134734;27;20034;-68
2022/06/16 10:54:21;;;;;;;6.68;2.00;;;33.20;64.50;;;;;;5135020;27;20046;-69
2022/06/16 10:56:47;;;;;;;3.58;1.90;;;33.40;64.90;;;;;;5134558;27;20023;-71
2022/06/16 10:59:28;;;;;;;3.90;1.70;;;33.20;65.60;;;;;;5134651;27;20038;-70
2022/06/16 11:02:11;;;;;;;3.45;2.10;;;33.00;65.90;;;;;;5134874;27;20019;-69
2022/06/16 11:04:40;;;;;;;9.23;2.30;;;33.00;65.80;;;;;;5133204;27;20053;-69
2022/06/16 11:07:11;;;;;;;5.70;2.10;;;32.90;65.30;;;;;;5134791;27;20389;-69
2022/06/16 11:09:37;;;;;;;8.10;2.28;;;32.40;65.80;;;;;;5134928;27;20095;-68
2022/06/16 11:12:24;;;;;;;5.57;1.70;;;32.50;66.00;;;;;;5134223;27;20019;-70
2022/06/16 11:14:54;;;;;;;15.52;2.13;;;32.60;66.50;;;;;;5133023;27;20057;-68
2022/06/16 11:17:28;;;;;;;5.38;1.92;;;32.70;67.00;;;;;;5134954;27;20025;-70
2022/06/16 11:20:06;;;;;;;11.20;2.00;;;32.60;68.40;;;;;;5134911;27;20479;-70
2022/06/16 11:22:35;;;;;;;3.22;1.75;;;32.70;68.40;;;;;;5135123;27;20379;-69
2022/06/16 11:25:05;;;;;;;5.85;1.73;;;32.90;68.10;;;;;;5133033;27;20054;-69
2022/06/16 11:27:45;;;;;;;3.75;2.00;;;33.00;66.00;;;;;;5133775;27;20432;-70
2022/06/16 11:30:43;;;;;;;5.30;2.00;;;33.20;65.90;;;;;;5135116;27;20478;-69
2022/06/16 11:37:02;;;;;;;8.30;2.10;;;32.60;66.20;;;;;;5134476;27;20042;-70
2022/06/16 11:39:28;;;;;;;7.20;1.92;;;32.40;63.40;;;;;;5124914;27;20043;-69
2022/06/16 11:41:56;;;;;;;4.90;1.60;;;32.10;66.80;;;;;;5133572;27;20359;-69
2022/06/16 11:45:16;;;;;;;3.08;1.52;;;31.90;68.20;;;;;;5134056;27;20031;-69
2022/06/16 11:47:49;;;;;;;4.40;1.90;;;31.60;69.50;;;;;;5051059;28;20064;-69
2022/06/16 11:50:43;;;;;;;4.05;1.80;;;31.20;70.70;;;;;;5051156;28;20033;-69
2022/06/16 11:53:39;;;;;;;3.40;1.67;;;31.50;71.70;;;;;;5049702;28;20104;-70
2022/06/16 11:56:24;;;;;;;3.92;1.88;;;31.90;68.20;;;;;;5033607;28;20084;-70
2022/06/16 11:59:25;;;;;;;9.05;1.80;;;32.10;68.80;;;;;;5049973;28;20052;-69
2022/06/16 12:02:27;;;;;;;6.38;1.80;;;32.30;68.10;;;;;;5010229;28;20045;-71
2022/06/16 12:05:17;;;;;;;5.78;1.90;;;31.80;65.70;;;;;;5049917;28;20083;-69
2022/06/16 12:07:49;;;;;;;4.35;1.58;;;31.80;67.40;;;;;;5050692;28;20057;-69
2022/06/16 12:10:30;;;;;;;10.18;2.13;;;32.00;68.30;;;;;;5050232;28;20033;-70
2022/06/16 12:13:10;;;;;;;5.10;1.85;;;32.00;69.10;;;;;;5050504;28;20057;-69
2022/06/16 12:15:59;;;;;;;4.90;1.50;;;32.00;71.50;;;;;;5050580;28;20116;-69
2022/06/16 12:18:34;;;;;;;3.80;1.83;;;32.00;71.80;;;;;;5051160;28;20029;-68
2022/06/16 12:21:09;;;;;;;3.80;1.67;;;32.00;70.10;;;;;;5069198;28;20039;-69
2022/06/16 12:23:59;;;;;;;2.83;1.40;;;31.90;73.10;;;;;;5134452;27;20124;-68
2022/06/16 12:26:34;;;;;;;3.60;1.50;;;32.00;75.60;;;;;;5133951;27;20179;-69
2022/06/16 12:29:16;;;;;;;4.45;1.70;;;32.00;76.00;;;;;;5134573;27;20023;-69
2022/06/16 12:32:08;;;;;;;3.10;1.60;;;31.40;76.30;;;;;;5134122;27;20015;-68
2022/06/16 12:34:56;;;;;;;3.10;1.65;;;31.30;77.50;;;;;;5134509;27;20031;-71
2022/06/16 12:37:26;;;;;;;3.45;1.30;;;31.30;78.30;;;;;;5134546;27;20023;-69
2022/06/16 12:40:01;;;;;;;2.95;1.58;;;31.50;77.90;;;;;;5138262;27;20027;-70
2022/06/16 12:42:33;;;;;;;5.43;1.88;;;31.30;78.70;;;;;;5138516;27;20027;-70
2022/06/16 12:45:19;;;;;;;3.05;1.80;;;31.30;79.50;;;;;;5138347;27;20363;-69
2022/06/16 12:47:50;;;;;;;5.28;1.98;;;31.40;80.40;;;;;;5138281;27;20038;-68
2022/06/16 12:50:22;;;;;;;4.85;1.85;;;31.00;79.00;;;;;;5137587;27;20023;-67
2022/06/16 12:53:03;;;;;;;6.32;1.77;;;30.70;79.30;;;;;;5138044;27;20015;-69
2022/06/16 12:55:44;;;;;;;4.75;1.88;;;30.80;81.00;;;;;;5137292;27;20038;-69
2022/06/16 12:58:32;;;;;;;7.05;1.83;;;30.80;81.50;;;;;;5137495;27;20459;-68
2022/06/16 13:01:03;;;;;;;3.13;1.75;;;30.80;82.40;;;;;;5137095;27;20491;-71
2022/06/16 13:03:53;;;;;;;3.22;1.80;;;30.70;83.20;;;;;;5137113;27;20039;-69
2022/06/16 13:06:21;;;;;;;3.38;1.70;;;30.90;81.70;;;;;;5137703;27;20084;-70
2022/06/16 13:08:53;;;;;;;4.63;2.67;;;30.70;82.30;;;;;;5137038;27;20026;-69
2022/06/16 13:11:25;;;;;;;5.00;1.85;;;30.70;81.30;;;;;;5136975;27;20027;-69
2022/06/16 13:14:21;;;;;;;17.90;2.40;;;30.40;85.00;;;;;;5137561;27;20058;-69
2022/06/16 13:16:50;;;;;;;5.25;1.50;;;30.50;84.70;;;;;;5137608;27;20015;-69
2022/06/16 13:19:26;;;;;;;5.45;2.33;;;30.60;87.90;;;;;;5137627;27;20404;-69
2022/06/16 13:21:56;;;;;;;5.10;2.17;;;30.60;86.40;;;;;;5137760;27;20023;-69
2022/06/16 13:24:49;;;;;;;2.72;1.80;;;30.60;86.50;;;;;;5136971;27;20135;-68
2022/06/16 13:27:28;;;;;;;5.63;1.90;;;30.60;86.90;;;;;;5137728;27;20099;-70
2022/06/16 13:30:08;;;;;;;5.40;2.50;;;30.70;88.00;;;;;;5137021;27;20023;-70
2022/06/16 13:32:36;;;;;;;5.38;2.47;;;30.90;88.20;;;;;;5137673;27;20023;-69
2022/06/16 13:35:22;;;;;;;3.50;2.53;;;31.10;88.30;;;;;;5136869;27;20503;-68
2022/06/16 13:37:50;;;;;;;4.45;2.50;;;31.40;87.80;;;;;;5136790;27;20083;-69